createdAt,value
2023-03-08T00:02:11.761Z,32.83
2023-03-08T00:05:18.985Z,34.60
2023-03-08T00:08:27.513Z,37.56
2023-03-08T00:11:34.733Z,36.66
2023-03-08T00:14:40.722Z,33.10
2023-03-08T00:17:50.217Z,34.71
2023-03-08T00:21:03.731Z,35.02
2023-03-08T00:24:16.960Z,34.32
2023-03-08T00:27:23.032Z,33.69
2023-03-08T00:30:30.180Z,33.71
2023-03-08T00:33:38.058Z,33.07
2023-03-08T00:36:46.542Z,32.13
2023-03-08T00:39:59.119Z,31.03
2023-03-08T00:43:06.447Z,31.19
2023-03-08T00:46:14.417Z,32.42
2023-03-08T00:49:22.934Z,33.03
2023-03-08T00:52:30.285Z,31.50
2023-03-08T00:55:39.896Z,33.16
2023-03-08T00:58:46.203Z,31.68
2023-03-08T01:01:53.262Z,31.77
2023-03-08T01:05:01.832Z,32.04
2023-03-08T01:08:09.021Z,31.29
2023-03-08T01:11:25.787Z,29.84
2023-03-08T01:14:32.818Z,30.19
2023-03-08T01:17:38.798Z,29.86
2023-03-08T01:20:45.889Z,28.57
2023-03-08T01:23:54.060Z,30.39
2023-03-08T01:27:03.422Z,28.52
2023-03-08T01:30:14.735Z,29.12
2023-03-08T01:33:21.577Z,32.04
2023-03-08T01:36:32.480Z,33.74
2023-03-08T01:39:39.263Z,33.95
2023-03-08T01:42:47.967Z,31.27
2023-03-08T01:46:22.576Z,30.12
2023-03-08T01:49:37.731Z,29.00
2023-03-08T01:52:54.817Z,30.43
2023-03-08T01:56:01.478Z,29.05
2023-03-08T01:59:12.524Z,28.26
2023-03-08T02:02:23.156Z,29.58
2023-03-08T02:05:32.046Z,30.45
2023-03-08T02:08:47.263Z,30.08
2023-03-08T02:11:55.886Z,29.41
2023-03-08T02:15:10.321Z,29.47
2023-03-08T02:18:17.167Z,30.43
2023-03-08T02:21:24.109Z,30.89
2023-03-08T02:24:35.072Z,31.05
2023-03-08T02:27:41.014Z,29.23
2023-03-08T02:30:47.888Z,28.62
2023-03-08T02:33:55.248Z,28.70
2023-03-08T02:37:02.383Z,30.69
2023-03-08T02:40:14.525Z,32.36
2023-03-08T02:43:22.836Z,30.96
2023-03-08T02:46:29.058Z,30.03
2023-03-08T02:49:38.048Z,27.21
2023-03-08T02:52:44.854Z,26.21
2023-03-08T02:55:53.378Z,25.77
2023-03-08T02:59:00.187Z,25.06
2023-03-08T03:02:06.640Z,24.29
2023-03-08T03:05:15.779Z,22.76
2023-03-08T03:08:21.975Z,21.68
2023-03-08T03:11:31.364Z,23.15
2023-03-08T03:14:38.234Z,22.46
2023-03-08T03:17:45.238Z,22.34
2023-03-08T03:20:54.078Z,23.16
2023-03-08T03:24:00.979Z,23.67
2023-03-08T03:27:17.259Z,23.41
2023-03-08T03:30:26.444Z,23.41
2023-03-08T03:33:32.862Z,22.16
2023-03-08T03:36:39.816Z,21.45
2023-03-08T03:39:46.221Z,21.79
2023-03-08T03:43:01.362Z,20.51
2023-03-08T03:46:23.554Z,19.21
2023-03-08T03:49:33.699Z,20.72
2023-03-08T03:52:39.718Z,21.09
2023-03-08T03:55:46.722Z,19.61
2023-03-08T03:58:56.413Z,19.98
2023-03-08T04:02:10.072Z,18.97
2023-03-08T04:05:21.667Z,18.64
2023-03-08T04:08:31.825Z,19.04
2023-03-08T04:11:43.383Z,18.96
2023-03-08T04:15:05.531Z,19.38
2023-03-08T04:18:12.271Z,19.63
2023-03-08T04:21:24.307Z,20.01
2023-03-08T04:24:31.105Z,20.96
2023-03-08T04:27:42.576Z,20.27
2023-03-08T04:30:55.720Z,19.34
2023-03-08T04:34:02.645Z,18.83
2023-03-08T04:37:09.277Z,21.03
2023-03-08T04:40:16.968Z,20.36
2023-03-08T04:43:32.343Z,21.58
2023-03-08T04:46:42.449Z,22.07
2023-03-08T04:49:52.911Z,21.49
2023-03-08T04:53:00.039Z,21.36
2023-03-08T04:56:09.036Z,21.52
2023-03-08T04:59:23.192Z,22.28
2023-03-08T05:02:34.404Z,20.08
2023-03-08T05:05:50.041Z,20.18
2023-03-08T05:08:57.264Z,21.37
2023-03-08T05:12:05.306Z,20.01
2023-03-08T05:15:30.828Z,19.54
2023-03-08T05:18:40.582Z,20.03
2023-03-08T05:21:48.666Z,23.29
2023-03-08T05:24:55.628Z,32.13
2023-03-08T05:28:09.281Z,36.80
2023-03-08T05:31:20.250Z,36.40
2023-03-08T05:34:30.398Z,37.28
2023-03-08T05:37:38.566Z,36.31
2023-03-08T05:40:45.211Z,37.12
2023-03-08T05:43:54.644Z,38.28
2023-03-08T05:47:00.826Z,36.47
2023-03-08T05:50:16.516Z,33.66
2023-03-08T05:53:25.087Z,30.09
2023-03-08T05:56:32.212Z,26.51
2023-03-08T05:59:47.219Z,24.54
2023-03-08T06:03:00.015Z,23.69
2023-03-08T06:06:16.214Z,24.56
2023-03-08T06:09:26.972Z,22.89
2023-03-08T06:12:57.275Z,25.16
2023-03-08T06:16:07.227Z,29.60
2023-03-08T06:19:13.772Z,28.75
2023-03-08T06:22:26.457Z,25.73
2023-03-08T06:25:33.870Z,19.37
2023-03-08T06:28:42.418Z,18.97
2023-03-08T06:31:49.663Z,18.82
2023-03-08T06:34:57.684Z,25.80
2023-03-08T06:38:06.589Z,41.86
2023-03-08T06:41:17.716Z,47.84
2023-03-08T06:44:29.103Z,43.30
2023-03-08T06:47:35.909Z,37.39
2023-03-08T06:50:42.091Z,21.73
2023-03-08T06:53:52.255Z,19.16
2023-03-08T06:57:17.306Z,20.50
2023-03-08T07:00:42.924Z,17.93
2023-03-08T07:03:49.302Z,17.82
2023-03-08T07:06:56.113Z,17.99
2023-03-08T07:10:05.038Z,17.71
2023-03-08T07:13:11.858Z,16.39
2023-03-08T07:16:18.661Z,18.19
2023-03-08T07:19:25.409Z,19.51
2023-03-08T07:22:33.245Z,18.05
2023-03-08T07:25:44.254Z,17.96
2023-03-08T07:28:53.416Z,18.87
2023-03-08T07:32:00.310Z,17.82
2023-03-08T07:35:13.091Z,18.32
2023-03-08T07:38:21.230Z,17.06
2023-03-08T07:41:32.074Z,16.19
2023-03-08T07:44:41.460Z,14.43
2023-03-08T07:47:53.447Z,16.01
2023-03-08T07:51:06.781Z,15.38
2023-03-08T07:54:15.416Z,15.97
2023-03-08T07:57:24.893Z,15.86
2023-03-08T08:00:31.295Z,15.44
2023-03-08T08:03:38.624Z,16.42
2023-03-08T08:06:46.055Z,16.19
2023-03-08T08:09:52.845Z,15.75
2023-03-08T08:13:03.650Z,16.71
2023-03-08T08:16:11.536Z,17.21
2023-03-08T08:19:18.293Z,17.48
2023-03-08T08:22:25.212Z,16.99
2023-03-08T08:25:31.482Z,16.94
2023-03-08T08:28:44.212Z,15.97
2023-03-08T08:31:53.013Z,16.63
2023-03-08T08:35:00.419Z,16.69
2023-03-08T08:38:06.480Z,16.83
2023-03-08T08:41:15.440Z,16.31
2023-03-08T08:44:24.045Z,16.78
2023-03-08T08:47:32.985Z,16.62
2023-03-08T08:50:40.304Z,16.52
2023-03-08T08:53:47.130Z,16.40
2023-03-08T08:56:53.154Z,16.74
2023-03-08T09:00:02.479Z,15.15
2023-03-08T09:03:09.989Z,15.57
2023-03-08T09:06:17.441Z,15.85
2023-03-08T09:09:23.832Z,25.06
2023-03-08T09:12:33.058Z,29.73
2023-03-08T09:15:41.697Z,29.89
2023-03-08T09:18:48.736Z,19.78
2023-03-08T09:21:54.708Z,15.99
2023-03-08T09:25:01.412Z,22.18
2023-03-08T09:28:07.767Z,23.75
2023-03-08T09:31:20.296Z,16.70
2023-03-08T09:34:26.298Z,15.58
2023-03-08T09:37:33.717Z,16.65
2023-03-08T09:41:01.971Z,16.63
2023-03-08T09:44:30.034Z,23.22
2023-03-08T09:47:49.231Z,28.92
2023-03-08T09:51:06.881Z,24.75
2023-03-08T09:54:23.494Z,17.60
2023-03-08T09:57:41.568Z,18.77
2023-03-08T10:00:49.077Z,18.74
2023-03-08T10:04:35.933Z,18.43
2023-03-08T10:08:00.117Z,23.88
2023-03-08T10:11:16.744Z,26.35
2023-03-08T10:14:30.914Z,18.35
2023-03-08T10:17:52.705Z,19.02
2023-03-08T10:21:11.244Z,17.73
2023-03-08T10:24:27.309Z,23.54
2023-03-08T10:27:38.701Z,24.18
2023-03-08T10:30:51.683Z,27.09
2023-03-08T10:34:12.489Z,18.91
2023-03-08T10:37:25.809Z,16.54
2023-03-08T10:40:31.801Z,16.77
2023-03-08T10:43:49.216Z,18.00
2023-03-08T10:46:55.070Z,21.43
2023-03-08T10:50:18.833Z,18.98
2023-03-08T10:53:29.622Z,17.16
2023-03-08T10:56:45.022Z,18.86
2023-03-08T10:59:53.716Z,18.10
2023-03-08T11:03:15.973Z,17.31
2023-03-08T11:06:27.468Z,17.67
2023-03-08T11:09:37.215Z,18.84
2023-03-08T11:12:43.660Z,18.61
2023-03-08T11:16:02.406Z,28.62
2023-03-08T11:19:34.692Z,26.03
2023-03-08T11:23:12.889Z,21.59
2023-03-08T11:26:38.687Z,17.93
2023-03-08T11:30:12.514Z,20.13
2023-03-08T11:33:58.740Z,27.32
2023-03-08T11:37:24.839Z,19.00
2023-03-08T11:40:43.916Z,22.45
2023-03-08T11:44:34.319Z,17.32
2023-03-08T11:48:17.506Z,17.54
2023-03-08T11:51:36.488Z,19.39
2023-03-08T11:55:05.879Z,18.06
2023-03-08T11:58:24.098Z,21.45
2023-03-08T12:01:50.559Z,23.69
2023-03-08T12:05:10.986Z,22.38
2023-03-08T12:08:28.210Z,18.10
2023-03-08T12:11:44.174Z,16.80
2023-03-08T12:15:00.883Z,15.35
2023-03-08T12:18:25.994Z,15.68
2023-03-08T12:21:49.309Z,16.48
2023-03-08T12:25:11.365Z,17.54
2023-03-08T12:28:27.375Z,15.26
2023-03-08T12:31:43.749Z,14.50
2023-03-08T12:35:05.880Z,16.03
2023-03-08T12:38:37.050Z,16.43
2023-03-08T12:41:43.310Z,14.61
2023-03-08T12:44:50.186Z,15.18
2023-03-08T12:48:13.850Z,14.75
2023-03-08T12:51:36.031Z,14.37
2023-03-08T12:54:42.372Z,17.22
2023-03-08T12:57:57.977Z,15.72
2023-03-08T13:01:07.745Z,16.49
2023-03-08T13:04:40.845Z,14.44
2023-03-08T13:08:05.868Z,17.16
2023-03-08T13:11:18.057Z,18.72
2023-03-08T13:14:40.517Z,19.56
2023-03-08T13:17:56.599Z,18.82
2023-03-08T13:21:30.270Z,17.76
2023-03-08T13:24:56.398Z,16.32
2023-03-08T13:28:10.279Z,21.75
2023-03-08T13:31:21.244Z,16.03
2023-03-08T13:34:32.326Z,15.33
2023-03-08T13:37:39.998Z,16.00
2023-03-08T13:40:55.951Z,17.28
2023-03-08T13:44:08.363Z,22.82
2023-03-08T13:47:27.597Z,21.28
2023-03-08T13:50:41.751Z,16.08
2023-03-08T13:53:48.299Z,16.55
2023-03-08T13:57:00.336Z,21.63
2023-03-08T14:00:32.858Z,14.70
2023-03-08T14:03:39.691Z,13.20
2023-03-08T14:06:54.563Z,14.46
2023-03-08T14:10:02.341Z,17.98
2023-03-08T14:13:23.723Z,23.49
2023-03-08T14:16:37.503Z,15.00
2023-03-08T14:19:44.212Z,17.81
2023-03-08T14:22:56.117Z,17.91
2023-03-08T14:26:02.775Z,13.32
2023-03-08T14:29:23.181Z,13.91
2023-03-08T14:32:36.207Z,14.72
2023-03-08T14:35:48.078Z,15.76
2023-03-08T14:38:54.543Z,16.14
2023-03-08T14:42:11.596Z,16.61
2023-03-08T14:45:28.190Z,17.87
2023-03-08T14:48:38.257Z,19.53
2023-03-08T14:51:46.591Z,20.32
2023-03-08T14:54:53.486Z,16.07
2023-03-08T14:58:05.477Z,21.47
2023-03-08T15:01:14.979Z,23.70
2023-03-08T15:04:24.028Z,16.64
2023-03-08T15:07:39.921Z,12.74
2023-03-08T15:10:47.274Z,10.02
2023-03-08T15:13:54.321Z,11.21
2023-03-08T15:17:03.498Z,10.10
2023-03-08T15:20:19.524Z,10.23
2023-03-08T15:23:31.925Z,11.80
2023-03-08T15:26:38.723Z,12.46
2023-03-08T15:29:45.245Z,13.83
2023-03-08T15:33:02.475Z,15.86
2023-03-08T15:36:18.351Z,17.19
2023-03-08T15:39:25.854Z,14.14
2023-03-08T15:42:37.540Z,13.33
2023-03-08T15:45:50.460Z,14.11
2023-03-08T15:48:58.961Z,12.82
2023-03-08T15:52:07.614Z,14.21
2023-03-08T15:55:17.083Z,11.22
2023-03-08T15:58:23.890Z,13.98
2023-03-08T16:01:33.399Z,17.52
2023-03-08T16:04:46.092Z,16.91
2023-03-08T16:07:55.536Z,17.66
2023-03-08T16:11:10.506Z,14.06
2023-03-08T16:14:26.771Z,13.77
2023-03-08T16:17:35.865Z,17.36
2023-03-08T16:20:46.672Z,18.58
2023-03-08T16:23:53.457Z,14.58
2023-03-08T16:26:59.804Z,15.92
2023-03-08T16:30:19.224Z,15.01
2023-03-08T16:33:25.570Z,16.18
2023-03-08T16:36:35.453Z,17.65
2023-03-08T16:39:48.201Z,18.39
2023-03-08T16:42:55.551Z,18.15
2023-03-08T16:46:04.348Z,18.13
2023-03-08T16:49:11.472Z,19.38
2023-03-08T16:52:29.923Z,18.84
2023-03-08T16:55:38.926Z,17.06
2023-03-08T16:58:48.544Z,26.77
2023-03-08T17:02:00.199Z,23.08
2023-03-08T17:05:08.505Z,18.93
2023-03-08T17:08:18.086Z,19.68
2023-03-08T17:11:28.372Z,25.74
2023-03-08T17:14:36.346Z,30.46
2023-03-08T17:17:42.677Z,19.23
2023-03-08T17:20:49.827Z,19.13
2023-03-08T17:23:59.059Z,19.05
2023-03-08T17:27:06.302Z,19.69
2023-03-08T17:30:17.062Z,20.97
2023-03-08T17:33:26.245Z,21.49
2023-03-08T17:36:32.347Z,22.19
2023-03-08T17:39:42.006Z,22.12
2023-03-08T17:42:49.196Z,23.01
2023-03-08T17:46:08.933Z,25.71
2023-03-08T17:49:17.171Z,30.58
2023-03-08T17:52:24.074Z,42.84
2023-03-08T17:55:33.355Z,49.72
2023-03-08T17:58:41.321Z,47.78
2023-03-08T18:01:47.862Z,44.62
2023-03-08T18:04:56.243Z,44.19
2023-03-08T18:08:02.267Z,43.73
2023-03-08T18:11:11.686Z,43.90
2023-03-08T18:14:18.765Z,41.61
2023-03-08T18:17:25.882Z,40.03
2023-03-08T18:20:31.870Z,41.04
2023-03-08T18:23:38.661Z,47.04
2023-03-08T18:26:47.200Z,45.05
2023-03-08T18:29:54.409Z,40.10
2023-03-08T18:33:00.567Z,38.06
2023-03-08T18:36:08.111Z,39.98
2023-03-08T18:39:17.164Z,46.30
2023-03-08T18:42:26.591Z,47.27
2023-03-08T18:45:33.585Z,56.54
2023-03-08T18:48:40.866Z,54.46
2023-03-08T18:51:47.338Z,45.46
2023-03-08T18:54:54.544Z,46.14
2023-03-08T18:58:03.209Z,46.03
2023-03-08T19:01:15.623Z,56.67
2023-03-08T19:04:21.782Z,56.25
2023-03-08T19:07:32.196Z,50.78
2023-03-08T19:10:41.076Z,49.34
2023-03-08T19:13:52.303Z,46.97
2023-03-08T19:17:01.051Z,46.38
2023-03-08T19:20:10.018Z,43.20
2023-03-08T19:23:16.066Z,40.90
2023-03-08T19:26:43.155Z,41.67
2023-03-08T19:29:51.734Z,44.37
2023-03-08T19:32:58.667Z,40.44
2023-03-08T19:36:04.641Z,38.45
2023-03-08T19:39:15.990Z,40.66
2023-03-08T19:42:22.240Z,43.48
2023-03-08T19:45:32.107Z,49.71
2023-03-08T19:48:39.838Z,48.46
2023-03-08T19:51:49.763Z,49.60
2023-03-08T19:54:55.816Z,55.55
2023-03-08T19:58:02.720Z,54.63
2023-03-08T20:01:12.098Z,51.49
2023-03-08T20:04:19.399Z,49.31
2023-03-08T20:07:25.584Z,51.42
2023-03-08T20:10:32.471Z,53.32
2023-03-08T20:13:38.569Z,55.41
2023-03-08T20:16:48.407Z,58.53
2023-03-08T20:19:54.485Z,59.16
2023-03-08T20:23:01.429Z,50.54
2023-03-08T20:26:09.381Z,44.86
2023-03-08T20:29:16.586Z,45.16
2023-03-08T20:32:25.378Z,41.89
2023-03-08T20:35:32.406Z,42.61
2023-03-08T20:38:38.848Z,35.84
2023-03-08T20:41:45.792Z,37.17
2023-03-08T20:44:52.308Z,40.44
2023-03-08T20:48:01.701Z,43.86
2023-03-08T20:51:10.350Z,43.68
2023-03-08T20:54:18.032Z,41.92
2023-03-08T20:57:24.091Z,38.74
2023-03-08T21:00:30.871Z,37.96
2023-03-08T21:03:39.531Z,40.41
2023-03-08T21:06:46.448Z,40.86
2023-03-08T21:09:52.507Z,40.07
2023-03-08T21:12:59.504Z,39.30
2023-03-08T21:16:09.094Z,38.19
2023-03-08T21:19:19.554Z,36.99
2023-03-08T21:22:25.660Z,32.87
2023-03-08T21:25:32.683Z,33.44
2023-03-08T21:28:38.779Z,31.51
2023-03-08T21:31:50.537Z,31.49
2023-03-08T21:34:59.468Z,31.68
2023-03-08T21:38:06.460Z,31.46
2023-03-08T21:41:20.613Z,32.67
2023-03-08T21:44:30.853Z,30.85
2023-03-08T21:47:37.997Z,31.71
2023-03-08T21:50:47.420Z,30.87
2023-03-08T21:53:54.015Z,28.30
2023-03-08T21:57:01.488Z,27.22
2023-03-08T22:00:10.090Z,31.68
2023-03-08T22:03:19.919Z,32.49
2023-03-08T22:06:28.840Z,27.53
2023-03-08T22:09:36.185Z,27.47
2023-03-08T22:12:42.735Z,31.52
2023-03-08T22:15:49.648Z,30.19
2023-03-08T22:18:57.318Z,28.97
2023-03-08T22:22:06.712Z,28.64
2023-03-08T22:25:13.597Z,28.73
2023-03-08T22:28:20.611Z,31.72
2023-03-08T22:31:30.515Z,28.97
2023-03-08T22:34:37.909Z,27.38
2023-03-08T22:37:46.834Z,25.24
2023-03-08T22:40:53.645Z,25.60
2023-03-08T22:44:02.994Z,26.13
2023-03-08T22:47:10.028Z,24.61
2023-03-08T22:50:16.739Z,23.12
2023-03-08T22:53:26.222Z,26.17
2023-03-08T22:56:33.643Z,22.53
2023-03-08T22:59:40.657Z,22.21
2023-03-08T23:02:49.623Z,21.74
2023-03-08T23:05:56.654Z,21.86
2023-03-08T23:09:10.297Z,23.09
2023-03-08T23:12:20.574Z,23.04
2023-03-08T23:15:29.486Z,24.33
2023-03-08T23:18:36.998Z,25.08
2023-03-08T23:21:44.689Z,23.81
2023-03-08T23:24:54.739Z,23.86
2023-03-08T23:28:01.245Z,24.70
2023-03-08T23:31:13.802Z,25.13
2023-03-08T23:34:20.322Z,25.30
2023-03-08T23:37:27.691Z,22.10
2023-03-08T23:40:36.459Z,20.54
2023-03-08T23:43:44.649Z,18.76
2023-03-08T23:46:50.641Z,19.00
2023-03-08T23:49:57.745Z,18.85
2023-03-08T23:53:03.989Z,18.53
2023-03-08T23:56:26.839Z,19.61
2023-03-08T23:59:33.017Z,20.84
